sensor_id;sensor_type;location;lat;lon;timestamp;P1;P2;P0
64697;PMS5003;51124;53.394;-6.294;2023-05-10T00:02:25;11;11;
64697;PMS5003;51124;53.394;-6.294;2023-05-10T00:04:52;12;12;
64697;PMS5003;51124;53.394;-6.294;2023-05-10T00:07:19;12;11;
64697;PMS5003;51124;53.394;-6.294;2023-05-10T00:09:46;13;13;
64697;PMS5003;51124;53.394;-6.294;2023-05-10T00:12:13;10;10;
64697;PMS5003;51124;53.394;-6.294;2023-05-10T00:14:41;14;14;
64697;PMS5003;51124;53.394;-6.294;2023-05-10T00:17:08;13;13;
64697;PMS5003;51124;53.394;-6.294;2023-05-10T00:19:35;12;12;
64697;PMS5003;51124;53.394;-6.294;2023-05-10T00:22:03;13;13;
64697;PMS5003;51124;53.394;-6.294;2023-05-10T00:24:30;11;11;
64697;PMS5003;51124;53.394;-6.294;2023-05-10T00:26:57;11;11;
64697;PMS5003;51124;53.394;-6.294;2023-05-10T00:29:24;12;12;
64697;PMS5003;51124;53.394;-6.294;2023-05-10T00:31:52;12;11;
64697;PMS5003;51124;53.394;-6.294;2023-05-10T00:34:19;11;11;
64697;PMS5003;51124;53.394;-6.294;2023-05-10T00:36:46;13;13;
64697;PMS5003;51124;53.394;-6.294;2023-05-10T00:39:14;11;11;
64697;PMS5003;51124;53.394;-6.294;2023-05-10T00:41:41;13;12;
64697;PMS5003;51124;53.394;-6.294;2023-05-10T00:44:08;10;10;
64697;PMS5003;51124;53.394;-6.294;2023-05-10T00:46:36;11;11;
64697;PMS5003;51124;53.394;-6.294;2023-05-10T00:49:03;11;11;
64697;PMS5003;51124;53.394;-6.294;2023-05-10T00:51:31;11;11;
64697;PMS5003;51124;53.394;-6.294;2023-05-10T00:53:58;12;12;
64697;PMS5003;51124;53.394;-6.294;2023-05-10T00:56:26;13;11;
64697;PMS5003;51124;53.394;-6.294;2023-05-10T00:58:54;14;11;
64697;PMS5003;51124;53.394;-6.294;2023-05-10T01:01:20;12;11;
64697;PMS5003;51124;53.394;-6.294;2023-05-10T01:03:46;10;10;
64697;PMS5003;51124;53.394;-6.294;2023-05-10T01:06:12;10;10;
64697;PMS5003;51124;53.394;-6.294;2023-05-10T01:08:37;13;11;
64697;PMS5003;51124;53.394;-6.294;2023-05-10T01:11:02;13;9;
64697;PMS5003;51124;53.394;-6.294;2023-05-10T01:13:30;12;12;
64697;PMS5003;51124;53.394;-6.294;2023-05-10T01:16:01;11;9;
64697;PMS5003;51124;53.394;-6.294;2023-05-10T01:18:29;11;10;
64697;PMS5003;51124;53.394;-6.294;2023-05-10T01:21:01;12;11;
64697;PMS5003;51124;53.394;-6.294;2023-05-10T01:23:30;10;10;
64697;PMS5003;51124;53.394;-6.294;2023-05-10T01:26:01;11;11;
64697;PMS5003;51124;53.394;-6.294;2023-05-10T01:28:37;9;9;
64697;PMS5003;51124;53.394;-6.294;2023-05-10T01:31:06;10;10;
64697;PMS5003;51124;53.394;-6.294;2023-05-10T01:33:35;11;11;
64697;PMS5003;51124;53.394;-6.294;2023-05-10T01:36:01;8;8;
64697;PMS5003;51124;53.394;-6.294;2023-05-10T01:38:36;12;10;
64697;PMS5003;51124;53.394;-6.294;2023-05-10T01:41:08;10;9;
64697;PMS5003;51124;53.394;-6.294;2023-05-10T01:43:54;11;11;
64697;PMS5003;51124;53.394;-6.294;2023-05-10T01:46:16;11;11;
64697;PMS5003;51124;53.394;-6.294;2023-05-10T01:48:51;13;12;
64697;PMS5003;51124;53.394;-6.294;2023-05-10T01:51:23;10;10;
64697;PMS5003;51124;53.394;-6.294;2023-05-10T01:53:56;13;12;
64697;PMS5003;51124;53.394;-6.294;2023-05-10T01:56:26;8;8;
64697;PMS5003;51124;53.394;-6.294;2023-05-10T01:58:55;11;10;
64697;PMS5003;51124;53.394;-6.294;2023-05-10T02:01:24;9;9;
64697;PMS5003;51124;53.394;-6.294;2023-05-10T02:03:52;10;10;
64697;PMS5003;51124;53.394;-6.294;2023-05-10T02:06:20;10;10;
64697;PMS5003;51124;53.394;-6.294;2023-05-10T02:08:50;9;9;
64697;PMS5003;51124;53.394;-6.294;2023-05-10T02:11:20;10;10;
64697;PMS5003;51124;53.394;-6.294;2023-05-10T02:13:48;10;10;
64697;PMS5003;51124;53.394;-6.294;2023-05-10T02:16:16;11;10;
64697;PMS5003;51124;53.394;-6.294;2023-05-10T02:18:48;11;10;
64697;PMS5003;51124;53.394;-6.294;2023-05-10T02:21:17;8;8;
64697;PMS5003;51124;53.394;-6.294;2023-05-10T02:23:46;10;9;
64697;PMS5003;51124;53.394;-6.294;2023-05-10T02:26:15;8;8;
64697;PMS5003;51124;53.394;-6.294;2023-05-10T02:28:45;8;8;
64697;PMS5003;51124;53.394;-6.294;2023-05-10T02:31:14;12;10;
64697;PMS5003;51124;53.394;-6.294;2023-05-10T02:33:42;9;9;
64697;PMS5003;51124;53.394;-6.294;2023-05-10T02:36:13;11;10;
64697;PMS5003;51124;53.394;-6.294;2023-05-10T02:38:41;10;8;
64697;PMS5003;51124;53.394;-6.294;2023-05-10T02:41:11;11;10;
64697;PMS5003;51124;53.394;-6.294;2023-05-10T02:43:38;11;11;
64697;PMS5003;51124;53.394;-6.294;2023-05-10T02:46:07;11;9;
64697;PMS5003;51124;53.394;-6.294;2023-05-10T02:48:35;9;9;
64697;PMS5003;51124;53.394;-6.294;2023-05-10T02:51:03;9;9;
64697;PMS5003;51124;53.394;-6.294;2023-05-10T02:53:33;10;10;
64697;PMS5003;51124;53.394;-6.294;2023-05-10T02:56:05;10;9;
64697;PMS5003;51124;53.394;-6.294;2023-05-10T02:58:36;8;8;
64697;PMS5003;51124;53.394;-6.294;2023-05-10T03:01:04;7;7;
64697;PMS5003;51124;53.394;-6.294;2023-05-10T03:03:31;9;9;
64697;PMS5003;51124;53.394;-6.294;2023-05-10T03:05:58;10;8;
64697;PMS5003;51124;53.394;-6.294;2023-05-10T03:08:26;9;8;
64697;PMS5003;51124;53.394;-6.294;2023-05-10T03:10:55;8;8;
64697;PMS5003;51124;53.394;-6.294;2023-05-10T03:13:27;6;6;
64697;PMS5003;51124;53.394;-6.294;2023-05-10T03:15:59;7;7;
64697;PMS5003;51124;53.394;-6.294;2023-05-10T03:18:33;8;8;
64697;PMS5003;51124;53.394;-6.294;2023-05-10T03:21:06;9;9;
64697;PMS5003;51124;53.394;-6.294;2023-05-10T03:23:36;8;8;
64697;PMS5003;51124;53.394;-6.294;2023-05-10T03:26:11;6;5;
64697;PMS5003;51124;53.394;-6.294;2023-05-10T03:28:36;7;6;
64697;PMS5003;51124;53.394;-6.294;2023-05-10T03:31:04;8;8;
64697;PMS5003;51124;53.394;-6.294;2023-05-10T03:33:32;9;8;
64697;PMS5003;51124;53.394;-6.294;2023-05-10T03:36:00;8;8;
64697;PMS5003;51124;53.394;-6.294;2023-05-10T03:38:27;7;6;
64697;PMS5003;51124;53.394;-6.294;2023-05-10T03:40:55;8;7;
64697;PMS5003;51124;53.394;-6.294;2023-05-10T03:43:22;11;8;
64697;PMS5003;51124;53.394;-6.294;2023-05-10T03:45:49;6;6;
64697;PMS5003;51124;53.394;-6.294;2023-05-10T03:48:16;7;7;
64697;PMS5003;51124;53.394;-6.294;2023-05-10T03:50:43;11;10;
64697;PMS5003;51124;53.394;-6.294;2023-05-10T03:53:11;6;5;
64697;PMS5003;51124;53.394;-6.294;2023-05-10T03:55:38;8;8;
64697;PMS5003;51124;53.394;-6.294;2023-05-10T03:58:05;9;7;
64697;PMS5003;51124;53.394;-6.294;2023-05-10T04:00:35;7;7;
64697;PMS5003;51124;53.394;-6.294;2023-05-10T04:03:02;8;8;
64697;PMS5003;51124;53.394;-6.294;2023-05-10T04:05:30;6;6;
64697;PMS5003;51124;53.394;-6.294;2023-05-10T04:07:57;7;7;
64697;PMS5003;51124;53.394;-6.294;2023-05-10T04:10:24;7;7;
64697;PMS5003;51124;53.394;-6.294;2023-05-10T04:12:52;8;8;
64697;PMS5003;51124;53.394;-6.294;2023-05-10T04:15:19;6;6;
64697;PMS5003;51124;53.394;-6.294;2023-05-10T04:17:46;8;8;
64697;PMS5003;51124;53.394;-6.294;2023-05-10T04:20:14;7;7;
64697;PMS5003;51124;53.394;-6.294;2023-05-10T04:22:41;7;7;
64697;PMS5003;51124;53.394;-6.294;2023-05-10T04:25:08;7;7;
64697;PMS5003;51124;53.394;-6.294;2023-05-10T04:27:36;7;7;
64697;PMS5003;51124;53.394;-6.294;2023-05-10T04:30:04;8;8;
64697;PMS5003;51124;53.394;-6.294;2023-05-10T04:32:32;8;8;
64697;PMS5003;51124;53.394;-6.294;2023-05-10T04:34:59;7;7;
64697;PMS5003;51124;53.394;-6.294;2023-05-10T04:37:26;8;8;
64697;PMS5003;51124;53.394;-6.294;2023-05-10T04:39:54;9;9;
64697;PMS5003;51124;53.394;-6.294;2023-05-10T04:42:21;7;7;
64697;PMS5003;51124;53.394;-6.294;2023-05-10T04:44:48;7;7;
64697;PMS5003;51124;53.394;-6.294;2023-05-10T04:47:15;5;5;
64697;PMS5003;51124;53.394;-6.294;2023-05-10T04:49:43;5;5;
64697;PMS5003;51124;53.394;-6.294;2023-05-10T04:52:10;8;8;
64697;PMS5003;51124;53.394;-6.294;2023-05-10T04:54:37;8;7;
64697;PMS5003;51124;53.394;-6.294;2023-05-10T04:57:05;7;7;
64697;PMS5003;51124;53.394;-6.294;2023-05-10T04:59:32;9;9;
64697;PMS5003;51124;53.394;-6.294;2023-05-10T05:02:00;5;5;
64697;PMS5003;51124;53.394;-6.294;2023-05-10T05:04:28;7;7;
64697;PMS5003;51124;53.394;-6.294;2023-05-10T05:06:56;7;7;
64697;PMS5003;51124;53.394;-6.294;2023-05-10T05:09:23;9;7;
64697;PMS5003;51124;53.394;-6.294;2023-05-10T05:11:51;7;7;
64697;PMS5003;51124;53.394;-6.294;2023-05-10T05:14:19;7;7;
64697;PMS5003;51124;53.394;-6.294;2023-05-10T05:16:46;5;5;
64697;PMS5003;51124;53.394;-6.294;2023-05-10T05:19:13;8;8;
64697;PMS5003;51124;53.394;-6.294;2023-05-10T05:21:41;5;5;
64697;PMS5003;51124;53.394;-6.294;2023-05-10T05:24:08;6;6;
64697;PMS5003;51124;53.394;-6.294;2023-05-10T05:26:36;6;6;
64697;PMS5003;51124;53.394;-6.294;2023-05-10T05:29:03;7;7;
64697;PMS5003;51124;53.394;-6.294;2023-05-10T05:31:31;5;5;
64697;PMS5003;51124;53.394;-6.294;2023-05-10T05:33:59;4;4;
64697;PMS5003;51124;53.394;-6.294;2023-05-10T05:36:26;6;6;
64697;PMS5003;51124;53.394;-6.294;2023-05-10T05:38:54;6;6;
64697;PMS5003;51124;53.394;-6.294;2023-05-10T05:41:21;7;5;
64697;PMS5003;51124;53.394;-6.294;2023-05-10T05:43:49;7;6;
64697;PMS5003;51124;53.394;-6.294;2023-05-10T05:46:16;6;6;
64697;PMS5003;51124;53.394;-6.294;2023-05-10T05:48:43;6;6;
64697;PMS5003;51124;53.394;-6.294;2023-05-10T05:51:11;6;6;
64697;PMS5003;51124;53.394;-6.294;2023-05-10T05:53:38;6;5;
64697;PMS5003;51124;53.394;-6.294;2023-05-10T05:56:05;5;5;
64697;PMS5003;51124;53.394;-6.294;2023-05-10T05:58:32;5;5;
64697;PMS5003;51124;53.394;-6.294;2023-05-10T06:01:00;4;4;
64697;PMS5003;51124;53.394;-6.294;2023-05-10T06:03:27;7;7;
64697;PMS5003;51124;53.394;-6.294;2023-05-10T06:05:54;5;5;
64697;PMS5003;51124;53.394;-6.294;2023-05-10T06:08:21;6;6;
64697;PMS5003;51124;53.394;-6.294;2023-05-10T06:10:49;5;5;
64697;PMS5003;51124;53.394;-6.294;2023-05-10T06:13:16;6;6;
64697;PMS5003;51124;53.394;-6.294;2023-05-10T06:15:43;5;5;
64697;PMS5003;51124;53.394;-6.294;2023-05-10T06:18:10;6;5;
64697;PMS5003;51124;53.394;-6.294;2023-05-10T06:20:37;5;5;
64697;PMS5003;51124;53.394;-6.294;2023-05-10T06:23:05;7;7;
64697;PMS5003;51124;53.394;-6.294;2023-05-10T06:25:33;7;5;
64697;PMS5003;51124;53.394;-6.294;2023-05-10T06:28:00;6;5;
64697;PMS5003;51124;53.394;-6.294;2023-05-10T06:30:27;5;5;
64697;PMS5003;51124;53.394;-6.294;2023-05-10T06:32:55;4;4;
64697;PMS5003;51124;53.394;-6.294;2023-05-10T06:35:22;6;6;
64697;PMS5003;51124;53.394;-6.294;2023-05-10T06:37:50;4;4;
64697;PMS5003;51124;53.394;-6.294;2023-05-10T06:40:17;5;5;
64697;PMS5003;51124;53.394;-6.294;2023-05-10T06:42:45;6;5;
64697;PMS5003;51124;53.394;-6.294;2023-05-10T06:45:13;4;4;
64697;PMS5003;51124;53.394;-6.294;2023-05-10T06:47:40;4;4;
64697;PMS5003;51124;53.394;-6.294;2023-05-10T06:50:08;5;5;
64697;PMS5003;51124;53.394;-6.294;2023-05-10T06:52:36;8;7;
64697;PMS5003;51124;53.394;-6.294;2023-05-10T06:55:03;4;4;
64697;PMS5003;51124;53.394;-6.294;2023-05-10T06:57:31;5;5;
64697;PMS5003;51124;53.394;-6.294;2023-05-10T06:59:59;5;5;
64697;PMS5003;51124;53.394;-6.294;2023-05-10T07:02:26;4;4;
64697;PMS5003;51124;53.394;-6.294;2023-05-10T07:04:54;4;4;
64697;PMS5003;51124;53.394;-6.294;2023-05-10T07:07:21;5;5;
64697;PMS5003;51124;53.394;-6.294;2023-05-10T07:09:48;3;3;
64697;PMS5003;51124;53.394;-6.294;2023-05-10T07:12:15;4;4;
64697;PMS5003;51124;53.394;-6.294;2023-05-10T07:14:43;3;3;
64697;PMS5003;51124;53.394;-6.294;2023-05-10T07:17:10;3;3;
64697;PMS5003;51124;53.394;-6.294;2023-05-10T07:19:37;1;1;
64697;PMS5003;51124;53.394;-6.294;2023-05-10T07:22:05;2;2;
64697;PMS5003;51124;53.394;-6.294;2023-05-10T07:24:32;3;3;
64697;PMS5003;51124;53.394;-6.294;2023-05-10T07:27:00;2;2;
64697;PMS5003;51124;53.394;-6.294;2023-05-10T07:29:27;1;1;
64697;PMS5003;51124;53.394;-6.294;2023-05-10T07:31:54;4;4;
64697;PMS5003;51124;53.394;-6.294;2023-05-10T07:34:22;3;3;
64697;PMS5003;51124;53.394;-6.294;2023-05-10T07:36:49;1;1;
64697;PMS5003;51124;53.394;-6.294;2023-05-10T07:39:16;2;2;
64697;PMS5003;51124;53.394;-6.294;2023-05-10T07:41:44;2;2;
64697;PMS5003;51124;53.394;-6.294;2023-05-10T07:44:11;3;3;
64697;PMS5003;51124;53.394;-6.294;2023-05-10T07:46:39;2;2;
64697;PMS5003;51124;53.394;-6.294;2023-05-10T07:49:06;2;2;
64697;PMS5003;51124;53.394;-6.294;2023-05-10T07:51:33;3;3;
64697;PMS5003;51124;53.394;-6.294;2023-05-10T07:54:00;3;3;
64697;PMS5003;51124;53.394;-6.294;2023-05-10T07:56:29;2;2;
64697;PMS5003;51124;53.394;-6.294;2023-05-10T07:58:57;2;2;
64697;PMS5003;51124;53.394;-6.294;2023-05-10T08:01:24;1;1;
64697;PMS5003;51124;53.394;-6.294;2023-05-10T08:03:54;1;1;
64697;PMS5003;51124;53.394;-6.294;2023-05-10T08:06:22;1;1;
64697;PMS5003;51124;53.394;-6.294;2023-05-10T08:08:50;2;2;
64697;PMS5003;51124;53.394;-6.294;2023-05-10T08:11:17;2;2;
64697;PMS5003;51124;53.394;-6.294;2023-05-10T08:13:45;1;1;
64697;PMS5003;51124;53.394;-6.294;2023-05-10T08:16:13;4;2;
64697;PMS5003;51124;53.394;-6.294;2023-05-10T08:18:43;2;2;
64697;PMS5003;51124;53.394;-6.294;2023-05-10T08:21:11;2;2;
64697;PMS5003;51124;53.394;-6.294;2023-05-10T08:23:39;2;2;
64697;PMS5003;51124;53.394;-6.294;2023-05-10T08:26:07;2;2;
64697;PMS5003;51124;53.394;-6.294;2023-05-10T08:28:34;2;2;
64697;PMS5003;51124;53.394;-6.294;2023-05-10T08:31:02;2;2;
64697;PMS5003;51124;53.394;-6.294;2023-05-10T08:33:29;1;1;
64697;PMS5003;51124;53.394;-6.294;2023-05-10T08:35:54;2;1;
64697;PMS5003;51124;53.394;-6.294;2023-05-10T08:38:20;2;2;
64697;PMS5003;51124;53.394;-6.294;2023-05-10T08:40:45;1;1;
64697;PMS5003;51124;53.394;-6.294;2023-05-10T08:43:12;1;1;
64697;PMS5003;51124;53.394;-6.294;2023-05-10T08:45:38;2;2;
64697;PMS5003;51124;53.394;-6.294;2023-05-10T08:48:05;2;2;
64697;PMS5003;51124;53.394;-6.294;2023-05-10T08:50:32;3;3;
64697;PMS5003;51124;53.394;-6.294;2023-05-10T08:53:00;1;1;
64697;PMS5003;51124;53.394;-6.294;2023-05-10T08:55:28;2;2;
64697;PMS5003;51124;53.394;-6.294;2023-05-10T08:57:53;1;1;
64697;PMS5003;51124;53.394;-6.294;2023-05-10T09:00:19;2;2;
64697;PMS5003;51124;53.394;-6.294;2023-05-10T09:02:46;2;2;
64697;PMS5003;51124;53.394;-6.294;2023-05-10T09:05:15;3;1;
64697;PMS5003;51124;53.394;-6.294;2023-05-10T09:07:42;2;1;
64697;PMS5003;51124;53.394;-6.294;2023-05-10T09:10:09;2;2;
64697;PMS5003;51124;53.394;-6.294;2023-05-10T09:12:37;1;1;
64697;PMS5003;51124;53.394;-6.294;2023-05-10T09:15:05;1;1;
64697;PMS5003;51124;53.394;-6.294;2023-05-10T09:17:34;2;1;
64697;PMS5003;51124;53.394;-6.294;2023-05-10T09:20:03;0;0;
64697;PMS5003;51124;53.394;-6.294;2023-05-10T09:22:31;2;0;
64697;PMS5003;51124;53.394;-6.294;2023-05-10T09:25:06;1;1;
64697;PMS5003;51124;53.394;-6.294;2023-05-10T09:27:26;2;2;
64697;PMS5003;51124;53.394;-6.294;2023-05-10T09:29:53;1;1;
64697;PMS5003;51124;53.394;-6.294;2023-05-10T09:32:21;2;2;
64697;PMS5003;51124;53.394;-6.294;2023-05-10T09:34:50;1;1;
64697;PMS5003;51124;53.394;-6.294;2023-05-10T09:37:17;1;1;
64697;PMS5003;51124;53.394;-6.294;2023-05-10T09:39:43;1;1;
64697;PMS5003;51124;53.394;-6.294;2023-05-10T09:42:10;3;3;
64697;PMS5003;51124;53.394;-6.294;2023-05-10T09:44:42;1;1;
64697;PMS5003;51124;53.394;-6.294;2023-05-10T09:47:10;2;1;
64697;PMS5003;51124;53.394;-6.294;2023-05-10T09:49:41;2;2;
64697;PMS5003;51124;53.394;-6.294;2023-05-10T09:52:09;0;0;
64697;PMS5003;51124;53.394;-6.294;2023-05-10T09:54:36;1;1;
64697;PMS5003;51124;53.394;-6.294;2023-05-10T09:57:13;1;1;
64697;PMS5003;51124;53.394;-6.294;2023-05-10T09:59:36;1;1;
64697;PMS5003;51124;53.394;-6.294;2023-05-10T10:02:09;2;2;
64697;PMS5003;51124;53.394;-6.294;2023-05-10T10:04:38;1;1;
64697;PMS5003;51124;53.394;-6.294;2023-05-10T10:07:06;0;0;
64697;PMS5003;51124;53.394;-6.294;2023-05-10T10:09:34;0;0;
64697;PMS5003;51124;53.394;-6.294;2023-05-10T10:12:01;2;2;
64697;PMS5003;51124;53.394;-6.294;2023-05-10T10:14:29;1;1;
64697;PMS5003;51124;53.394;-6.294;2023-05-10T10:16:56;1;1;
64697;PMS5003;51124;53.394;-6.294;2023-05-10T10:19:25;2;2;
64697;PMS5003;51124;53.394;-6.294;2023-05-10T10:21:52;2;2;
64697;PMS5003;51124;53.394;-6.294;2023-05-10T10:24:19;1;1;
64697;PMS5003;51124;53.394;-6.294;2023-05-10T10:26:47;1;1;
64697;PMS5003;51124;53.394;-6.294;2023-05-10T10:29:19;2;2;
64697;PMS5003;51124;53.394;-6.294;2023-05-10T10:31:52;2;1;
64697;PMS5003;51124;53.394;-6.294;2023-05-10T10:34:22;0;0;
64697;PMS5003;51124;53.394;-6.294;2023-05-10T10:36:52;1;1;
64697;PMS5003;51124;53.394;-6.294;2023-05-10T10:39:21;1;1;
64697;PMS5003;51124;53.394;-6.294;2023-05-10T10:41:50;1;1;
64697;PMS5003;51124;53.394;-6.294;2023-05-10T10:44:27;1;1;
64697;PMS5003;51124;53.394;-6.294;2023-05-10T10:46:59;3;1;
64697;PMS5003;51124;53.394;-6.294;2023-05-10T10:49:17;1;1;
64697;PMS5003;51124;53.394;-6.294;2023-05-10T10:52:12;1;1;
64697;PMS5003;51124;53.394;-6.294;2023-05-10T10:54:21;1;1;
64697;PMS5003;51124;53.394;-6.294;2023-05-10T10:56:44;0;0;
64697;PMS5003;51124;53.394;-6.294;2023-05-10T10:59:17;2;2;
64697;PMS5003;51124;53.394;-6.294;2023-05-10T11:01:43;1;1;
64697;PMS5003;51124;53.394;-6.294;2023-05-10T11:04:16;1;1;
64697;PMS5003;51124;53.394;-6.294;2023-05-10T11:06:44;1;1;
64697;PMS5003;51124;53.394;-6.294;2023-05-10T11:09:12;1;1;
64697;PMS5003;51124;53.394;-6.294;2023-05-10T11:11:55;2;2;
64697;PMS5003;51124;53.394;-6.294;2023-05-10T11:14:12;2;2;
64697;PMS5003;51124;53.394;-6.294;2023-05-10T11:16:41;0;0;
64697;PMS5003;51124;53.394;-6.294;2023-05-10T11:19:07;1;1;
64697;PMS5003;51124;53.394;-6.294;2023-05-10T11:21:43;1;1;
64697;PMS5003;51124;53.394;-6.294;2023-05-10T11:24:01;1;1;
64697;PMS5003;51124;53.394;-6.294;2023-05-10T11:26:30;0;0;
64697;PMS5003;51124;53.394;-6.294;2023-05-10T11:28:55;2;1;
64697;PMS5003;51124;53.394;-6.294;2023-05-10T11:31:21;1;1;
64697;PMS5003;51124;53.394;-6.294;2023-05-10T11:33:48;1;1;
64697;PMS5003;51124;53.394;-6.294;2023-05-10T11:36:14;2;1;
64697;PMS5003;51124;53.394;-6.294;2023-05-10T11:38:42;0;0;
64697;PMS5003;51124;53.394;-6.294;2023-05-10T11:41:08;0;0;
64697;PMS5003;51124;53.394;-6.294;2023-05-10T11:43:35;1;1;
64697;PMS5003;51124;53.394;-6.294;2023-05-10T11:46:04;1;1;
64697;PMS5003;51124;53.394;-6.294;2023-05-10T11:48:32;3;3;
64697;PMS5003;51124;53.394;-6.294;2023-05-10T11:51:00;2;1;
64697;PMS5003;51124;53.394;-6.294;2023-05-10T11:53:27;0;0;
64697;PMS5003;51124;53.394;-6.294;2023-05-10T11:55:58;1;1;
64697;PMS5003;51124;53.394;-6.294;2023-05-10T11:58:30;0;0;
64697;PMS5003;51124;53.394;-6.294;2023-05-10T12:00:58;1;1;
64697;PMS5003;51124;53.394;-6.294;2023-05-10T12:03:25;1;1;
64697;PMS5003;51124;53.394;-6.294;2023-05-10T12:05:54;1;1;
64697;PMS5003;51124;53.394;-6.294;2023-05-10T12:08:22;1;1;
64697;PMS5003;51124;53.394;-6.294;2023-05-10T12:10:51;1;1;
64697;PMS5003;51124;53.394;-6.294;2023-05-10T12:13:18;0;0;
64697;PMS5003;51124;53.394;-6.294;2023-05-10T12:15:46;1;1;
64697;PMS5003;51124;53.394;-6.294;2023-05-10T12:18:14;3;2;
64697;PMS5003;51124;53.394;-6.294;2023-05-10T12:20:47;1;1;
64697;PMS5003;51124;53.394;-6.294;2023-05-10T12:23:16;1;1;
64697;PMS5003;51124;53.394;-6.294;2023-05-10T12:25:44;1;1;
64697;PMS5003;51124;53.394;-6.294;2023-05-10T12:28:11;0;0;
64697;PMS5003;51124;53.394;-6.294;2023-05-10T12:30:39;0;0;
64697;PMS5003;51124;53.394;-6.294;2023-05-10T12:33:08;1;1;
64697;PMS5003;51124;53.394;-6.294;2023-05-10T12:35:44;2;2;
64697;PMS5003;51124;53.394;-6.294;2023-05-10T12:38:05;2;2;
64697;PMS5003;51124;53.394;-6.294;2023-05-10T12:40:30;1;0;
64697;PMS5003;51124;53.394;-6.294;2023-05-10T12:42:57;1;1;
64697;PMS5003;51124;53.394;-6.294;2023-05-10T12:45:25;1;1;
64697;PMS5003;51124;53.394;-6.294;2023-05-10T12:47:52;1;1;
64697;PMS5003;51124;53.394;-6.294;2023-05-10T12:50:19;1;1;
64697;PMS5003;51124;53.394;-6.294;2023-05-10T12:52:46;1;1;
64697;PMS5003;51124;53.394;-6.294;2023-05-10T12:55:13;1;1;
64697;PMS5003;51124;53.394;-6.294;2023-05-10T12:57:41;2;1;
64697;PMS5003;51124;53.394;-6.294;2023-05-10T13:00:08;1;1;
64697;PMS5003;51124;53.394;-6.294;2023-05-10T13:02:36;1;1;
64697;PMS5003;51124;53.394;-6.294;2023-05-10T13:05:04;0;0;
64697;PMS5003;51124;53.394;-6.294;2023-05-10T13:07:31;1;1;
64697;PMS5003;51124;53.394;-6.294;2023-05-10T13:09:59;1;1;
64697;PMS5003;51124;53.394;-6.294;2023-05-10T13:12:26;1;1;
64697;PMS5003;51124;53.394;-6.294;2023-05-10T13:14:53;2;1;
64697;PMS5003;51124;53.394;-6.294;2023-05-10T13:17:20;2;1;
64697;PMS5003;51124;53.394;-6.294;2023-05-10T13:19:49;1;0;
64697;PMS5003;51124;53.394;-6.294;2023-05-10T13:22:17;1;1;
64697;PMS5003;51124;53.394;-6.294;2023-05-10T13:24:44;1;1;
64697;PMS5003;51124;53.394;-6.294;2023-05-10T13:27:12;1;1;
64697;PMS5003;51124;53.394;-6.294;2023-05-10T13:29:39;0;0;
64697;PMS5003;51124;53.394;-6.294;2023-05-10T13:32:06;1;1;
64697;PMS5003;51124;53.394;-6.294;2023-05-10T13:34:33;0;0;
64697;PMS5003;51124;53.394;-6.294;2023-05-10T13:37:00;1;1;
64697;PMS5003;51124;53.394;-6.294;2023-05-10T13:39:28;1;1;
64697;PMS5003;51124;53.394;-6.294;2023-05-10T13:41:55;1;1;
64697;PMS5003;51124;53.394;-6.294;2023-05-10T13:44:22;1;1;
64697;PMS5003;51124;53.394;-6.294;2023-05-10T13:46:50;1;1;
64697;PMS5003;51124;53.394;-6.294;2023-05-10T13:49:17;2;2;
64697;PMS5003;51124;53.394;-6.294;2023-05-10T13:51:44;2;2;
64697;PMS5003;51124;53.394;-6.294;2023-05-10T13:54:12;0;0;
64697;PMS5003;51124;53.394;-6.294;2023-05-10T13:56:39;2;1;
64697;PMS5003;51124;53.394;-6.294;2023-05-10T13:59:06;1;0;
64697;PMS5003;51124;53.394;-6.294;2023-05-10T14:01:34;1;1;
64697;PMS5003;51124;53.394;-6.294;2023-05-10T14:04:01;0;0;
64697;PMS5003;51124;53.394;-6.294;2023-05-10T14:06:29;0;0;
64697;PMS5003;51124;53.394;-6.294;2023-05-10T14:08:56;2;2;
64697;PMS5003;51124;53.394;-6.294;2023-05-10T14:11:24;1;1;
64697;PMS5003;51124;53.394;-6.294;2023-05-10T14:13:51;0;0;
64697;PMS5003;51124;53.394;-6.294;2023-05-10T14:16:19;1;1;
64697;PMS5003;51124;53.394;-6.294;2023-05-10T14:18:46;2;2;
64697;PMS5003;51124;53.394;-6.294;2023-05-10T14:21:14;1;1;
64697;PMS5003;51124;53.394;-6.294;2023-05-10T14:23:41;2;2;
64697;PMS5003;51124;53.394;-6.294;2023-05-10T14:26:09;1;1;
64697;PMS5003;51124;53.394;-6.294;2023-05-10T14:28:36;1;1;
64697;PMS5003;51124;53.394;-6.294;2023-05-10T14:31:04;1;0;
64697;PMS5003;51124;53.394;-6.294;2023-05-10T14:33:32;0;0;
64697;PMS5003;51124;53.394;-6.294;2023-05-10T14:35:59;0;0;
64697;PMS5003;51124;53.394;-6.294;2023-05-10T14:38:26;0;0;
64697;PMS5003;51124;53.394;-6.294;2023-05-10T14:40:54;1;1;
64697;PMS5003;51124;53.394;-6.294;2023-05-10T14:43:22;1;1;
64697;PMS5003;51124;53.394;-6.294;2023-05-10T14:45:49;0;0;
64697;PMS5003;51124;53.394;-6.294;2023-05-10T14:48:16;0;0;
64697;PMS5003;51124;53.394;-6.294;2023-05-10T14:50:44;1;1;
64697;PMS5003;51124;53.394;-6.294;2023-05-10T14:53:12;1;1;
64697;PMS5003;51124;53.394;-6.294;2023-05-10T14:55:39;0;0;
64697;PMS5003;51124;53.394;-6.294;2023-05-10T14:58:06;1;1;
64697;PMS5003;51124;53.394;-6.294;2023-05-10T15:00:34;0;0;
64697;PMS5003;51124;53.394;-6.294;2023-05-10T15:03:01;0;0;
64697;PMS5003;51124;53.394;-6.294;2023-05-10T15:05:28;2;2;
64697;PMS5003;51124;53.394;-6.294;2023-05-10T15:07:55;0;0;
64697;PMS5003;51124;53.394;-6.294;2023-05-10T15:10:23;1;1;
64697;PMS5003;51124;53.394;-6.294;2023-05-10T15:12:50;1;0;
64697;PMS5003;51124;53.394;-6.294;2023-05-10T15:15:17;1;1;
64697;PMS5003;51124;53.394;-6.294;2023-05-10T15:17:44;1;1;
64697;PMS5003;51124;53.394;-6.294;2023-05-10T15:20:12;0;0;
64697;PMS5003;51124;53.394;-6.294;2023-05-10T15:22:39;0;0;
64697;PMS5003;51124;53.394;-6.294;2023-05-10T15:25:07;1;1;
64697;PMS5003;51124;53.394;-6.294;2023-05-10T15:27:34;1;1;
64697;PMS5003;51124;53.394;-6.294;2023-05-10T15:30:02;1;1;
64697;PMS5003;51124;53.394;-6.294;2023-05-10T15:32:30;0;0;
64697;PMS5003;51124;53.394;-6.294;2023-05-10T15:34:57;0;0;
64697;PMS5003;51124;53.394;-6.294;2023-05-10T15:37:24;0;0;
64697;PMS5003;51124;53.394;-6.294;2023-05-10T15:39:51;1;0;
64697;PMS5003;51124;53.394;-6.294;2023-05-10T15:42:19;0;0;
64697;PMS5003;51124;53.394;-6.294;2023-05-10T15:44:46;1;1;
64697;PMS5003;51124;53.394;-6.294;2023-05-10T15:47:13;0;0;
64697;PMS5003;51124;53.394;-6.294;2023-05-10T15:49:40;0;0;
64697;PMS5003;51124;53.394;-6.294;2023-05-10T15:52:08;1;1;
64697;PMS5003;51124;53.394;-6.294;2023-05-10T15:54:35;1;1;
64697;PMS5003;51124;53.394;-6.294;2023-05-10T15:57:02;0;0;
64697;PMS5003;51124;53.394;-6.294;2023-05-10T15:59:31;3;1;
64697;PMS5003;51124;53.394;-6.294;2023-05-10T16:01:58;1;0;
64697;PMS5003;51124;53.394;-6.294;2023-05-10T16:04:25;1;1;
64697;PMS5003;51124;53.394;-6.294;2023-05-10T16:06:53;0;0;
64697;PMS5003;51124;53.394;-6.294;2023-05-10T16:09:20;1;1;
64697;PMS5003;51124;53.394;-6.294;2023-05-10T16:11:47;0;0;
64697;PMS5003;51124;53.394;-6.294;2023-05-10T16:14:14;2;2;
64697;PMS5003;51124;53.394;-6.294;2023-05-10T16:16:41;2;1;
64697;PMS5003;51124;53.394;-6.294;2023-05-10T16:19:09;0;0;
64697;PMS5003;51124;53.394;-6.294;2023-05-10T16:21:36;0;0;
64697;PMS5003;51124;53.394;-6.294;2023-05-10T16:24:04;1;1;
64697;PMS5003;51124;53.394;-6.294;2023-05-10T16:26:31;1;1;
64697;PMS5003;51124;53.394;-6.294;2023-05-10T16:28:58;0;0;
64697;PMS5003;51124;53.394;-6.294;2023-05-10T16:31:26;2;2;
64697;PMS5003;51124;53.394;-6.294;2023-05-10T16:33:53;2;2;